Terminal Aerodrome Forecast
Issued by NWS Blacksburg, VA

Current Version | Previous Version | Text Only | Print | Product List | Glossary Off
Versions: 1 2 3 4 5 6 7 8 9 10 11 12

000
FTUS41 KRNK 201006 AAA
TAFBLF
TAF AMD
KBLF 201006Z 2010/2106 26003KT P6SM SKC
      TEMPO 2010/2012 4SM BR
     FM201400 34005KT P6SM SCT035
     FM201800 32007KT P6SM SCT045
     FM210000 VRB03KT P6SM SKC=

USA.gov is the U.S. government's official web portal to all federal, state and local government web resources and services.